createdAt,value
2019-03-28T00:01:15.523Z,12.30
2019-03-28T00:03:46.437Z,14.20
2019-03-28T00:06:17.324Z,13.27
2019-03-28T00:08:48.209Z,17.33
2019-03-28T00:11:19.131Z,11.90
2019-03-28T00:13:50.043Z,11.97
2019-03-28T00:16:20.952Z,12.53
2019-03-28T00:18:51.831Z,14.17
2019-03-28T00:21:22.756Z,11.13
2019-03-28T00:24:15.559Z,11.53
2019-03-28T00:26:46.463Z,12.73
2019-03-28T00:29:16.415Z,17.63
2019-03-28T00:31:48.017Z,14.80
2019-03-28T00:34:19.025Z,14.43
2019-03-28T00:36:49.929Z,11.33
2019-03-28T00:39:20.884Z,14.13
2019-03-28T00:41:51.806Z,12.60
2019-03-28T00:44:22.724Z,13.63
2019-03-28T00:46:53.732Z,13.77
2019-03-28T00:49:24.646Z,15.17
2019-03-28T00:51:55.522Z,14.63
2019-03-28T00:54:26.432Z,15.93
2019-03-28T00:56:57.318Z,13.47
2019-03-28T00:59:28.243Z,13.57
2019-03-28T01:01:59.072Z,15.03
2019-03-28T01:04:29.971Z,11.80
2019-03-28T01:07:00.889Z,14.30
2019-03-28T01:09:31.814Z,11.63
2019-03-28T01:12:02.776Z,10.57
2019-03-28T01:14:33.775Z,9.40
2019-03-28T01:17:05.185Z,12.63
2019-03-28T01:19:35.355Z,12.17
2019-03-28T01:22:06.235Z,9.63
2019-03-28T01:24:37.326Z,11.03
2019-03-28T01:27:08.240Z,10.07
2019-03-28T01:29:39.167Z,11.33
2019-03-28T01:32:10.063Z,15.13
2019-03-28T01:38:15.670Z,11.57
2019-03-28T01:40:45.530Z,10.87
2019-03-28T01:43:16.351Z,13.43
2019-03-28T01:45:47.206Z,11.30
2019-03-28T01:48:18.115Z,8.27
2019-03-28T01:50:49.112Z,9.23
2019-03-28T01:53:20.475Z,10.20
2019-03-28T01:55:51.358Z,11.03
2019-03-28T01:58:22.234Z,15.93
2019-03-28T02:00:53.103Z,7.90
2019-03-28T02:03:24.007Z,8.70
2019-03-28T02:05:54.866Z,8.47
2019-03-28T02:08:25.078Z,10.67
2019-03-28T02:10:54.973Z,9.77
2019-03-28T02:13:25.771Z,7.87
2019-03-28T02:15:56.655Z,8.07
2019-03-28T02:18:26.607Z,9.37
2019-03-28T02:20:57.440Z,9.63
2019-03-28T02:23:28.282Z,10.00
2019-03-28T02:25:59.163Z,10.37
2019-03-28T02:28:30.047Z,8.88
2019-03-28T02:31:01.052Z,8.67
2019-03-28T02:33:31.939Z,10.23
2019-03-28T02:36:02.848Z,12.47
2019-03-28T02:38:33.712Z,15.53
2019-03-28T02:41:04.563Z,15.87
2019-03-28T02:43:35.433Z,11.80
2019-03-28T02:46:05.411Z,11.87
2019-03-28T02:48:36.178Z,8.73
2019-03-28T02:51:07.039Z,10.80
2019-03-28T02:53:37.888Z,9.00
2019-03-28T02:56:08.774Z,8.73
2019-03-28T02:58:39.640Z,11.07
2019-03-28T03:01:10.510Z,7.57
2019-03-28T03:03:41.344Z,9.70
2019-03-28T03:06:12.210Z,11.97
2019-03-28T03:08:43.070Z,10.88
2019-03-28T03:11:14.038Z,11.80
2019-03-28T03:13:43.963Z,11.97
2019-03-28T03:16:14.754Z,10.93
2019-03-28T03:18:44.691Z,8.47
2019-03-28T03:21:15.468Z,11.70
2019-03-28T03:23:45.989Z,12.50
2019-03-28T03:26:17.375Z,11.90
2019-03-28T03:28:48.227Z,17.57
2019-03-28T03:31:21.446Z,14.33
2019-03-28T03:33:51.456Z,14.17
2019-03-28T03:36:21.395Z,19.63
2019-03-28T03:38:52.190Z,18.10
2019-03-28T03:41:22.157Z,17.90
2019-03-28T03:43:52.883Z,17.93
2019-03-28T03:46:23.760Z,23.57
2019-03-28T03:48:54.617Z,18.13
2019-03-28T03:51:25.451Z,20.13
2019-03-28T03:53:55.421Z,16.97
2019-03-28T03:56:26.171Z,14.60
2019-03-28T03:58:57.043Z,17.73
2019-03-28T04:01:27.919Z,17.07
2019-03-28T04:03:58.823Z,18.17
2019-03-28T04:06:29.627Z,16.50
2019-03-28T04:09:00.519Z,20.47
2019-03-28T04:11:31.369Z,18.93
2019-03-28T04:14:02.688Z,19.07
2019-03-28T04:16:33.655Z,22.07
2019-03-28T04:19:05.783Z,24.83
2019-03-28T04:21:35.868Z,24.73
2019-03-28T04:24:05.716Z,20.37
2019-03-28T04:26:36.471Z,19.17
2019-03-28T04:29:06.421Z,23.10
2019-03-28T04:31:37.189Z,22.37
2019-03-28T04:34:08.750Z,19.57
2019-03-28T04:36:40.825Z,22.97
2019-03-28T04:39:11.965Z,20.53
2019-03-28T04:41:42.826Z,21.73
2019-03-28T04:44:13.679Z,17.70
2019-03-28T04:46:45.315Z,22.27
2019-03-28T04:49:15.854Z,19.23
2019-03-28T04:51:45.854Z,19.90
2019-03-28T04:54:16.625Z,18.97
2019-03-28T04:56:47.508Z,21.27
2019-03-28T04:59:18.403Z,18.40
2019-03-28T05:02:02.670Z,20.43
2019-03-28T05:04:21.316Z,19.50
2019-03-28T05:06:52.131Z,19.87
2019-03-28T05:09:23.002Z,20.30
2019-03-28T05:11:54.042Z,20.27
2019-03-28T05:14:24.962Z,18.32
2019-03-28T05:16:55.950Z,18.60
2019-03-28T05:19:25.891Z,20.87
2019-03-28T05:21:56.828Z,19.43
2019-03-28T05:24:26.803Z,18.83
2019-03-28T05:26:57.863Z,23.67
2019-03-28T05:29:28.747Z,19.73
2019-03-28T05:32:00.410Z,20.83
2019-03-28T05:34:31.382Z,23.40
2019-03-28T05:37:01.329Z,19.17
2019-03-28T05:39:31.203Z,22.70
2019-03-28T05:42:01.083Z,25.10
2019-03-28T05:44:31.843Z,22.70
2019-03-28T05:47:03.413Z,21.17
2019-03-28T05:49:34.341Z,20.07
2019-03-28T05:52:05.212Z,22.57
2019-03-28T05:54:36.098Z,24.85
2019-03-28T05:57:06.962Z,22.67
2019-03-28T05:59:37.826Z,23.33
2019-03-28T06:02:09.078Z,22.33
2019-03-28T06:04:39.954Z,25.88
2019-03-28T06:07:10.839Z,21.23
2019-03-28T06:09:40.798Z,23.53
2019-03-28T06:12:11.562Z,25.07
2019-03-28T06:14:42.442Z,20.93
2019-03-28T06:17:13.295Z,19.30
2019-03-28T06:19:44.163Z,25.03
2019-03-28T06:22:15.051Z,17.10
2019-03-28T06:24:45.927Z,20.87
2019-03-28T06:27:16.779Z,20.00
2019-03-28T06:29:47.658Z,18.53
2019-03-28T06:32:18.534Z,21.73
2019-03-28T06:34:49.469Z,19.70
2019-03-28T06:37:19.423Z,20.63
2019-03-28T06:39:50.251Z,22.63
2019-03-28T06:42:21.887Z,22.67
2019-03-28T06:44:53.143Z,20.83
2019-03-28T06:47:23.075Z,19.47
2019-03-28T06:49:53.851Z,20.17
2019-03-28T06:52:24.723Z,20.23
2019-03-28T06:54:56.416Z,19.27
2019-03-28T06:57:27.412Z,18.97
2019-03-28T06:59:59.436Z,18.70
2019-03-28T07:02:30.330Z,21.93
2019-03-28T07:05:00.411Z,17.27
2019-03-28T07:07:30.339Z,18.13
2019-03-28T07:10:02.560Z,17.67
2019-03-28T07:12:33.825Z,18.40
2019-03-28T07:15:05.006Z,18.77
2019-03-28T07:17:34.946Z,19.33
2019-03-28T07:20:09.120Z,19.00
2019-03-28T07:22:40.007Z,14.85
2019-03-28T07:25:10.874Z,18.77
2019-03-28T07:27:40.820Z,19.33
2019-03-28T07:30:11.524Z,19.20
2019-03-28T07:32:43.451Z,21.70
2019-03-28T07:35:12.859Z,17.40
2019-03-28T07:37:42.698Z,21.63
2019-03-28T07:40:15.153Z,21.73
2019-03-28T07:42:46.031Z,19.27
2019-03-28T07:45:16.108Z,21.80
2019-03-28T07:47:46.892Z,17.97
2019-03-28T07:50:18.279Z,26.00
2019-03-28T07:52:48.669Z,21.03
2019-03-28T07:55:18.596Z,20.93
2019-03-28T07:57:49.359Z,21.37
2019-03-28T08:00:20.971Z,22.97
2019-03-28T08:02:50.902Z,21.60
2019-03-28T08:05:21.716Z,19.73
2019-03-28T08:07:52.583Z,20.40
2019-03-28T08:10:23.451Z,21.57
2019-03-28T08:12:54.299Z,26.83
2019-03-28T08:15:24.275Z,25.40
2019-03-28T08:17:55.059Z,22.93
2019-03-28T08:20:25.923Z,22.77
2019-03-28T08:22:56.787Z,19.10
2019-03-28T08:25:26.754Z,20.47
2019-03-28T08:27:57.777Z,23.27
2019-03-28T08:30:36.687Z,22.13
2019-03-28T08:33:08.931Z,21.90
2019-03-28T08:35:39.912Z,22.17
2019-03-28T08:38:10.451Z,21.93
2019-03-28T08:40:43.032Z,18.97
2019-03-28T08:43:13.287Z,19.13
2019-03-28T08:45:44.097Z,22.50
2019-03-28T08:48:14.072Z,24.80
2019-03-28T08:50:44.818Z,22.10
2019-03-28T08:53:14.850Z,22.60
2019-03-28T08:55:45.622Z,18.13
2019-03-28T08:58:15.594Z,27.83
2019-03-28T09:00:52.274Z,24.60
2019-03-28T09:03:18.886Z,23.03
2019-03-28T09:05:49.760Z,22.00
2019-03-28T09:08:21.685Z,19.80
2019-03-28T09:10:52.578Z,22.03
2019-03-28T09:13:22.522Z,21.10
2019-03-28T09:15:53.302Z,24.60
2019-03-28T09:18:23.258Z,19.93
2019-03-28T09:20:53.103Z,16.77
2019-03-28T09:23:23.035Z,22.27
2019-03-28T09:25:54.235Z,19.50
2019-03-28T09:28:25.734Z,26.37
2019-03-28T09:30:56.599Z,22.57
2019-03-28T09:33:28.013Z,28.23
2019-03-28T09:36:01.819Z,23.80
2019-03-28T09:38:32.756Z,28.50
2019-03-28T09:41:02.657Z,26.40
2019-03-28T09:43:33.863Z,20.27
2019-03-28T09:46:03.829Z,22.77
2019-03-28T09:48:34.603Z,26.73
2019-03-28T09:51:05.634Z,24.60
2019-03-28T09:53:35.594Z,22.22
2019-03-28T09:56:05.435Z,20.67
2019-03-28T09:58:36.241Z,29.00
2019-03-28T10:01:07.120Z,30.57
2019-03-28T10:03:38.011Z,29.73
2019-03-28T10:06:08.870Z,32.47
2019-03-28T10:08:39.791Z,28.07
2019-03-28T10:11:10.566Z,22.13
2019-03-28T10:13:41.451Z,26.03
2019-03-28T10:16:11.383Z,20.77
2019-03-28T10:18:42.200Z,24.37
2019-03-28T10:21:12.154Z,28.97
2019-03-28T10:23:43.642Z,21.87
2019-03-28T10:26:15.213Z,21.53
2019-03-28T10:28:46.091Z,22.00
2019-03-28T10:31:17.132Z,25.63
2019-03-28T10:33:48.190Z,20.03
2019-03-28T10:36:19.070Z,22.07
2019-03-28T10:38:49.969Z,21.50
2019-03-28T10:41:21.083Z,21.02
2019-03-28T10:43:51.047Z,19.93
2019-03-28T10:46:21.812Z,20.03
2019-03-28T10:48:54.311Z,19.23
2019-03-28T10:51:24.155Z,19.90
2019-03-28T10:53:55.035Z,17.87
2019-03-28T10:56:25.015Z,14.33
2019-03-28T10:58:54.843Z,16.73
2019-03-28T11:01:41.670Z,17.70
2019-03-28T11:03:57.214Z,15.77
2019-03-28T11:06:27.970Z,18.20
2019-03-28T11:08:58.835Z,17.43
2019-03-28T11:11:31.744Z,20.37
2019-03-28T11:14:01.698Z,14.97
2019-03-28T11:16:32.461Z,14.37
2019-03-28T11:19:02.390Z,12.07
2019-03-28T11:21:34.413Z,13.40
2019-03-28T11:24:05.346Z,16.23
2019-03-28T11:26:36.235Z,15.63
2019-03-28T11:29:07.795Z,16.50
2019-03-28T11:31:46.657Z,11.97
2019-03-28T11:34:10.501Z,11.27
2019-03-28T11:36:41.299Z,8.87
2019-03-28T11:39:12.154Z,10.53
2019-03-28T11:41:43.047Z,13.00
2019-03-28T11:44:12.963Z,11.30
2019-03-28T11:46:42.816Z,9.57
2019-03-28T11:49:13.614Z,13.37
2019-03-28T11:51:44.511Z,11.57
2019-03-28T11:54:14.443Z,12.97
2019-03-28T11:56:44.308Z,8.50
2019-03-28T11:59:15.229Z,10.87
2019-03-28T12:01:59.097Z,15.43
2019-03-28T12:04:18.661Z,11.13
2019-03-28T12:06:50.599Z,11.00
2019-03-28T12:09:20.675Z,11.50
2019-03-28T12:11:53.033Z,9.97
2019-03-28T12:14:23.966Z,9.83
2019-03-28T12:16:53.940Z,8.30
2019-03-28T12:19:24.735Z,9.60
2019-03-28T12:21:55.645Z,13.60
2019-03-28T12:24:26.887Z,14.33
2019-03-28T12:26:57.833Z,8.23
2019-03-28T12:29:27.766Z,11.10
2019-03-28T12:31:57.576Z,8.67
2019-03-28T12:34:28.367Z,11.37
2019-03-28T12:36:59.411Z,10.33
2019-03-28T12:39:29.407Z,9.30
2019-03-28T12:41:59.449Z,10.27
2019-03-28T12:44:30.187Z,9.13
2019-03-28T12:47:01.183Z,9.30
2019-03-28T12:49:31.211Z,8.30
2019-03-28T12:52:01.475Z,8.33
2019-03-28T12:54:31.395Z,11.78
2019-03-28T12:57:02.378Z,11.10
2019-03-28T12:59:33.712Z,10.07
2019-03-28T13:02:03.763Z,11.13
2019-03-28T13:04:34.791Z,10.23
2019-03-28T13:07:04.657Z,14.50
2019-03-28T13:09:35.762Z,14.40
2019-03-28T13:12:05.690Z,12.20
2019-03-28T13:14:36.541Z,14.07
2019-03-28T13:17:06.547Z,13.17
2019-03-28T13:19:37.383Z,16.60
2019-03-28T13:22:08.511Z,11.20
2019-03-28T13:24:38.403Z,14.07
2019-03-28T13:27:08.254Z,14.97
2019-03-28T13:29:39.038Z,14.77
2019-03-28T13:32:09.008Z,12.40
2019-03-28T13:34:39.825Z,12.13
2019-03-28T13:37:11.631Z,11.30
2019-03-28T13:39:42.503Z,9.40
2019-03-28T13:42:12.648Z,15.57
2019-03-28T13:44:42.811Z,12.77
2019-03-28T13:47:14.103Z,13.23
2019-03-28T13:49:44.074Z,9.97
2019-03-28T13:52:15.226Z,15.40
2019-03-28T13:54:46.123Z,9.50
2019-03-28T13:57:16.055Z,9.23
2019-03-28T13:59:45.931Z,10.20
2019-03-28T14:02:15.797Z,11.23
2019-03-28T14:04:45.804Z,9.67
2019-03-28T14:07:17.272Z,10.10
2019-03-28T14:09:47.201Z,9.17
2019-03-28T14:12:17.996Z,11.97
2019-03-28T14:14:48.000Z,7.70
2019-03-28T14:17:19.613Z,8.50
2019-03-28T14:19:50.592Z,9.03
2019-03-28T14:22:21.568Z,8.57
2019-03-28T14:24:52.482Z,7.33
2019-03-28T14:27:22.407Z,9.93
2019-03-28T14:29:52.257Z,7.83
2019-03-28T14:32:22.099Z,6.13
2019-03-28T14:34:51.978Z,7.17
2019-03-28T14:37:21.871Z,12.40
2019-03-28T14:39:52.661Z,7.63
2019-03-28T14:42:22.596Z,12.93
2019-03-28T14:44:53.379Z,7.70
2019-03-28T14:47:23.336Z,9.60
2019-03-28T14:49:54.283Z,8.67
2019-03-28T14:52:25.447Z,10.07
2019-03-28T14:54:56.307Z,8.07
2019-03-28T14:57:27.359Z,9.80
2019-03-28T14:59:59.858Z,10.37
2019-03-28T15:02:29.831Z,10.17
2019-03-28T15:04:59.710Z,11.17
2019-03-28T15:07:29.547Z,11.97
2019-03-28T15:09:59.430Z,8.67
2019-03-28T15:12:29.594Z,11.47
2019-03-28T15:15:00.538Z,9.53
2019-03-28T15:17:31.971Z,13.87
2019-03-28T15:20:01.980Z,13.23
2019-03-28T15:22:33.721Z,15.43
2019-03-28T15:25:04.671Z,18.23
2019-03-28T15:27:35.709Z,17.00
2019-03-28T15:30:07.435Z,17.17
2019-03-28T15:32:37.393Z,14.27
2019-03-28T15:35:08.200Z,19.90
2019-03-28T15:37:38.147Z,17.92
2019-03-28T15:40:08.901Z,17.40
2019-03-28T15:42:39.679Z,18.90
2019-03-28T15:45:09.767Z,17.47
2019-03-28T15:47:40.583Z,18.87
2019-03-28T15:50:11.590Z,17.33
2019-03-28T15:52:42.515Z,17.60
2019-03-28T15:55:14.813Z,17.07
2019-03-28T15:57:46.070Z,15.93
2019-03-28T16:00:16.097Z,15.43
2019-03-28T16:02:46.007Z,14.00
2019-03-28T16:05:15.863Z,15.60
2019-03-28T16:07:45.727Z,14.87
2019-03-28T16:10:15.919Z,18.17
2019-03-28T16:12:45.814Z,14.33
2019-03-28T16:15:16.700Z,22.33
2019-03-28T16:17:47.825Z,17.93
2019-03-28T16:20:17.733Z,18.97
2019-03-28T16:22:47.579Z,22.87
2019-03-28T16:25:18.437Z,22.60
2019-03-28T16:27:49.313Z,26.40
2019-03-28T16:30:22.060Z,22.50
2019-03-28T16:32:51.931Z,24.87
2019-03-28T16:35:22.767Z,26.53
2019-03-28T16:37:53.739Z,21.93
2019-03-28T16:40:23.835Z,24.97
2019-03-28T16:42:54.673Z,26.77
2019-03-28T16:45:25.547Z,25.20
2019-03-28T16:47:55.514Z,29.40
2019-03-28T16:50:27.195Z,30.30
2019-03-28T16:52:57.199Z,26.60
2019-03-28T16:55:28.181Z,29.50
2019-03-28T16:57:58.162Z,27.70
2019-03-28T17:00:40.342Z,30.17
2019-03-28T17:03:10.241Z,26.67
2019-03-28T17:05:41.777Z,28.07
2019-03-28T17:08:12.359Z,31.47
2019-03-28T17:10:48.935Z,29.30
2019-03-28T17:13:18.895Z,32.20
2019-03-28T17:15:51.034Z,31.07
2019-03-28T17:18:21.345Z,30.40
2019-03-28T17:20:52.789Z,31.50
2019-03-28T17:23:22.735Z,32.73
2019-03-28T17:25:53.856Z,30.23
2019-03-28T17:28:23.772Z,29.60
2019-03-28T17:30:53.871Z,31.87
2019-03-28T17:33:24.695Z,32.67
2019-03-28T17:35:55.876Z,31.73
2019-03-28T17:38:25.842Z,30.25
2019-03-28T17:40:56.713Z,27.47
2019-03-28T17:43:26.694Z,34.90
2019-03-28T17:45:56.666Z,28.23
2019-03-28T17:48:28.566Z,33.47
2019-03-28T17:50:59.107Z,37.53
2019-03-28T17:53:30.092Z,31.10
2019-03-28T17:56:00.964Z,37.10
2019-03-28T17:58:31.679Z,33.47
2019-03-28T18:01:02.657Z,36.80
2019-03-28T18:03:33.694Z,37.00
2019-03-28T18:06:04.622Z,38.53
2019-03-28T18:08:34.722Z,35.20
2019-03-28T18:11:05.604Z,37.17
2019-03-28T18:13:35.603Z,33.13
2019-03-28T18:16:07.613Z,33.40
2019-03-28T18:18:37.735Z,31.62
2019-03-28T18:21:07.630Z,26.23
2019-03-28T18:23:39.271Z,31.83
2019-03-28T18:26:10.079Z,24.47
2019-03-28T18:28:40.044Z,26.17
2019-03-28T18:31:10.239Z,23.37
2019-03-28T18:33:41.035Z,25.30
2019-03-28T18:36:11.902Z,22.57
2019-03-28T18:38:42.807Z,25.23
2019-03-28T18:41:13.678Z,22.07
2019-03-28T18:43:44.550Z,18.40
2019-03-28T18:46:15.426Z,17.93
2019-03-28T18:48:46.299Z,21.70
2019-03-28T18:51:17.197Z,15.90
2019-03-28T18:53:47.142Z,12.87
2019-03-28T18:56:17.075Z,14.33
2019-03-28T18:58:46.939Z,10.43
2019-03-28T19:01:17.719Z,12.43
2019-03-28T19:03:47.660Z,10.80
2019-03-28T19:06:18.799Z,11.87
2019-03-28T19:08:48.770Z,10.37
2019-03-28T19:11:19.418Z,8.28
2019-03-28T19:13:50.129Z,7.83
2019-03-28T19:16:21.806Z,12.57
2019-03-28T19:18:52.788Z,10.23
2019-03-28T19:21:23.748Z,7.30
2019-03-28T19:23:53.629Z,10.20
2019-03-28T19:26:23.565Z,12.30
2019-03-28T19:28:56.078Z,11.57
2019-03-28T19:31:24.875Z,12.57
2019-03-28T19:33:54.748Z,11.13
2019-03-28T19:36:25.960Z,12.98
2019-03-28T19:38:55.923Z,12.80
2019-03-28T19:41:25.820Z,11.40
2019-03-28T19:43:56.771Z,15.63
2019-03-28T19:46:27.674Z,13.53
2019-03-28T19:48:57.614Z,13.87
2019-03-28T19:51:28.480Z,13.90
2019-03-28T19:53:58.615Z,15.93
2019-03-28T19:56:32.640Z,15.73
2019-03-28T19:59:04.464Z,20.90
2019-03-28T20:01:35.108Z,16.87
2019-03-28T20:04:06.873Z,20.00
2019-03-28T20:06:37.895Z,20.13
2019-03-28T20:09:16.218Z,21.67
2019-03-28T20:11:39.676Z,26.77
2019-03-28T20:14:09.675Z,28.67
2019-03-28T20:16:39.631Z,32.87
2019-03-28T20:19:09.572Z,31.50
2019-03-28T20:21:39.471Z,40.83
2019-03-28T20:24:09.355Z,40.17
2019-03-28T20:26:40.271Z,37.50
2019-03-28T20:29:10.312Z,34.33
2019-03-28T20:31:41.063Z,36.40
2019-03-28T20:34:11.952Z,36.60
2019-03-28T20:36:44.128Z,35.57
2019-03-28T20:39:14.401Z,43.90
2019-03-28T20:41:44.271Z,35.00
2019-03-28T20:44:15.048Z,31.13
2019-03-28T20:46:45.905Z,35.10
2019-03-28T20:49:16.758Z,36.20
2019-03-28T20:51:47.615Z,32.40
2019-03-28T20:54:17.563Z,35.47
2019-03-28T20:56:48.371Z,33.37
2019-03-28T20:59:19.278Z,32.05
2019-03-28T21:01:50.167Z,35.33
2019-03-28T21:04:31.315Z,39.90
2019-03-28T21:06:54.094Z,35.67
2019-03-28T21:09:24.975Z,36.03
2019-03-28T21:11:54.959Z,36.93
2019-03-28T21:14:25.726Z,38.30
2019-03-28T21:16:58.156Z,32.73
2019-03-28T21:19:28.095Z,40.77
2019-03-28T21:21:58.026Z,39.10
2019-03-28T21:24:28.746Z,36.37
2019-03-28T21:26:59.615Z,42.97
2019-03-28T21:29:33.704Z,37.40
2019-03-28T21:32:02.080Z,35.13
2019-03-28T21:34:32.880Z,37.40
2019-03-28T21:37:06.448Z,39.57
2019-03-28T21:39:38.624Z,38.43
2019-03-28T21:42:07.963Z,41.07
2019-03-28T21:44:37.814Z,38.87
2019-03-28T21:47:08.609Z,41.00
2019-03-28T21:49:38.558Z,44.47
2019-03-28T21:52:08.439Z,44.43
2019-03-28T21:54:38.290Z,43.70
2019-03-28T21:57:08.131Z,43.13
2019-03-28T21:59:38.070Z,44.63
2019-03-28T22:02:08.931Z,45.80
2019-03-28T22:04:39.809Z,42.60
2019-03-28T22:07:09.759Z,50.93
2019-03-28T22:09:40.589Z,46.27
2019-03-28T22:12:10.462Z,47.60
2019-03-28T22:14:41.244Z,45.90
2019-03-28T22:17:11.282Z,49.77
2019-03-28T22:19:42.199Z,54.00
2019-03-28T22:22:12.130Z,49.90
2019-03-28T22:24:43.027Z,51.77
2019-03-28T22:27:13.881Z,51.83
2019-03-28T22:29:44.606Z,64.70
2019-03-28T22:32:14.384Z,47.60
2019-03-28T22:34:45.315Z,50.97
2019-03-28T22:37:16.207Z,56.17
2019-03-28T22:39:47.930Z,55.67
2019-03-28T22:42:18.825Z,47.97
2019-03-28T22:44:48.735Z,52.90
2019-03-28T22:47:20.258Z,47.63
2019-03-28T22:49:50.203Z,49.47
2019-03-28T22:52:20.062Z,45.90
2019-03-28T22:54:49.894Z,51.17
2019-03-28T22:57:20.681Z,49.03
2019-03-28T22:59:50.603Z,50.07
2019-03-28T23:02:21.388Z,46.47
2019-03-28T23:04:51.318Z,46.42
2019-03-28T23:07:21.190Z,49.80
2019-03-28T23:09:51.995Z,46.17
2019-03-28T23:12:21.962Z,52.30
2019-03-28T23:14:53.159Z,49.87
2019-03-28T23:17:24.059Z,56.60
2019-03-28T23:19:55.035Z,53.47
2019-03-28T23:22:25.004Z,50.37
2019-03-28T23:24:54.833Z,48.57
2019-03-28T23:27:26.861Z,47.27
2019-03-28T23:29:57.911Z,49.10
2019-03-28T23:32:28.779Z,48.90
2019-03-28T23:34:59.672Z,49.67
2019-03-28T23:37:30.575Z,49.50
2019-03-28T23:40:00.645Z,44.53
2019-03-28T23:42:31.441Z,42.80
2019-03-28T23:45:02.347Z,46.43
2019-03-28T23:47:34.587Z,58.53
2019-03-28T23:50:06.875Z,46.60
2019-03-28T23:52:37.971Z,39.90
2019-03-28T23:55:08.947Z,38.77
2019-03-28T23:57:39.863Z,45.70
